createdAt,value
2022-09-09T00:08:40.967Z,103.23
2022-09-09T00:18:58.811Z,104.70
2022-09-09T00:29:15.375Z,103.13
2022-09-09T00:39:35.223Z,102.67
2022-09-09T00:49:59.294Z,101.67
2022-09-09T01:00:26.801Z,101.50
2022-09-09T01:10:47.314Z,102.60
2022-09-09T01:21:05.248Z,97.07
2022-09-09T01:31:15.026Z,102.83
2022-09-09T01:41:23.074Z,98.90
2022-09-09T01:51:37.693Z,102.13
2022-09-09T02:02:00.262Z,101.43
2022-09-09T02:12:14.146Z,103.47
2022-09-09T02:22:26.613Z,102.93
2022-09-09T02:32:35.251Z,100.40
2022-09-09T02:42:42.640Z,99.27
2022-09-09T02:53:05.148Z,98.13
2022-09-09T03:03:10.966Z,101.07
2022-09-09T03:13:17.297Z,99.23
2022-09-09T03:23:21.735Z,98.63
2022-09-09T03:33:28.884Z,99.33
2022-09-09T03:43:33.781Z,100.73
2022-09-09T03:53:39.336Z,97.43
2022-09-09T04:03:43.672Z,95.23
2022-09-09T04:13:50.359Z,97.17
2022-09-09T04:23:55.715Z,99.03
2022-09-09T04:34:03.355Z,106.17
2022-09-09T04:44:07.297Z,98.07
2022-09-09T04:54:12.840Z,104.37
2022-09-09T05:04:20.572Z,96.97
2022-09-09T05:14:26.116Z,95.23
2022-09-09T05:24:30.571Z,104.07
2022-09-09T05:34:38.760Z,101.80
2022-09-09T05:44:45.718Z,97.70
2022-09-09T05:54:51.501Z,101.17
2022-09-09T06:05:00.432Z,102.47
2022-09-09T06:15:10.248Z,96.87
2022-09-09T06:25:14.006Z,111.73
2022-09-09T06:35:19.190Z,117.77
2022-09-09T06:45:22.724Z,119.77
2022-09-09T06:55:33.411Z,121.20
2022-09-09T07:05:37.492Z,115.00
2022-09-09T07:15:42.627Z,120.85
2022-09-09T07:25:48.537Z,122.88
2022-09-09T07:35:55.840Z,136.88
2022-09-09T07:46:00.287Z,140.38
2022-09-09T07:56:11.454Z,128.98
2022-09-09T08:06:16.209Z,130.13
2022-09-09T08:16:24.649Z,141.88
2022-09-09T08:26:30.878Z,137.88
2022-09-09T08:36:38.928Z,142.77
2022-09-09T08:46:57.079Z,142.02
2022-09-09T08:57:02.019Z,145.85
2022-09-09T09:07:17.456Z,144.23
2022-09-09T09:17:28.683Z,139.80
2022-09-09T09:27:37.316Z,129.88
2022-09-09T09:48:15.044Z,143.85
2022-09-09T09:58:20.298Z,144.18
2022-09-09T10:08:27.894Z,146.63
2022-09-09T10:18:48.351Z,151.02
2022-09-09T10:29:17.504Z,156.32
2022-09-09T10:39:40.620Z,155.60
2022-09-09T10:50:16.243Z,165.65
2022-09-09T11:00:23.934Z,181.15
2022-09-09T11:10:37.092Z,195.80
2022-09-09T11:20:42.465Z,201.43
2022-09-09T11:31:02.857Z,198.70
2022-09-09T11:41:11.213Z,205.48
2022-09-09T11:51:28.253Z,219.43
2022-09-09T12:01:38.984Z,221.20
2022-09-09T12:11:42.568Z,237.38
2022-09-09T12:21:56.723Z,192.70
2022-09-09T12:32:07.853Z,186.38
2022-09-09T12:42:20.893Z,179.07
2022-09-09T12:52:31.222Z,180.85
2022-09-09T13:02:36.828Z,163.60
2022-09-09T13:12:40.501Z,164.95
2022-09-09T13:22:45.280Z,164.02
2022-09-09T13:32:48.629Z,147.98
2022-09-09T13:42:59.059Z,145.25
2022-09-09T13:53:02.539Z,144.82
2022-09-09T14:03:08.715Z,140.80
2022-09-09T14:13:13.242Z,139.07
2022-09-09T14:23:18.453Z,137.43
2022-09-09T14:33:22.284Z,133.70
2022-09-09T14:43:29.014Z,128.75
2022-09-09T14:53:32.835Z,128.55
2022-09-09T15:03:38.319Z,129.02
2022-09-09T15:13:44.009Z,127.45
2022-09-09T15:23:49.418Z,127.28
2022-09-09T15:33:54.780Z,119.70
2022-09-09T15:44:00.338Z,119.18
2022-09-09T15:54:04.315Z,119.95
2022-09-09T16:04:09.471Z,116.35
2022-09-09T16:14:13.286Z,112.78
2022-09-09T16:24:21.098Z,116.45
2022-09-09T16:34:24.819Z,110.43
2022-09-09T16:44:30.332Z,109.73
2022-09-09T16:54:34.104Z,106.43
2022-09-09T17:04:40.327Z,105.83
2022-09-09T17:14:44.157Z,113.90
2022-09-09T17:24:49.302Z,100.37
2022-09-09T17:34:54.254Z,117.20
2022-09-09T17:44:59.302Z,101.70
2022-09-09T17:55:03.175Z,101.30
2022-09-09T18:05:09.399Z,103.03
2022-09-09T18:15:20.924Z,101.33
2022-09-09T18:25:33.573Z,101.80
2022-09-09T18:35:39.338Z,102.93
2022-09-09T18:45:44.748Z,101.57
2022-09-09T18:55:48.673Z,104.67
2022-09-09T19:05:54.071Z,109.57
2022-09-09T19:15:57.849Z,108.07
2022-09-09T19:26:06.479Z,104.00
2022-09-09T19:36:11.993Z,104.03
2022-09-09T19:46:18.546Z,103.77
2022-09-09T19:56:25.109Z,97.50
2022-09-09T20:06:33.332Z,101.13
2022-09-09T20:16:37.161Z,102.77
2022-09-09T20:26:42.357Z,96.63
2022-09-09T20:36:46.187Z,101.27
2022-09-09T20:46:55.571Z,99.33
2022-09-09T20:57:00.527Z,103.00
2022-09-09T21:07:07.626Z,105.80
2022-09-09T21:17:11.651Z,108.37
2022-09-09T21:27:16.599Z,106.87
2022-09-09T21:37:20.321Z,105.93
2022-09-09T21:47:25.573Z,104.63
2022-09-09T21:57:29.400Z,104.13
2022-09-09T22:07:34.551Z,103.30
2022-09-09T22:17:38.476Z,106.87
2022-09-09T22:27:43.478Z,106.23
2022-09-09T22:37:47.494Z,105.60
2022-09-09T22:47:52.499Z,109.13
2022-09-09T22:57:57.187Z,109.83
2022-09-09T23:08:02.342Z,115.33
2022-09-09T23:18:06.369Z,112.20
2022-09-09T23:28:11.521Z,111.93
2022-09-09T23:38:15.599Z,110.87
2022-09-09T23:48:20.851Z,112.47
2022-09-09T23:58:24.414Z,113.50
